sensor_id;sensor_type;location;lat;lon;timestamp;temperature;humidity
23540;DHT22;11947;50.810;4.394;2022-12-26T00:01:24;11.70;99.90
23540;DHT22;11947;50.810;4.394;2022-12-26T00:03:50;11.50;99.90
23540;DHT22;11947;50.810;4.394;2022-12-26T00:06:19;11.60;99.90
23540;DHT22;11947;50.810;4.394;2022-12-26T00:08:45;11.60;99.90
23540;DHT22;11947;50.810;4.394;2022-12-26T00:11:12;11.70;99.90
23540;DHT22;11947;50.810;4.394;2022-12-26T00:13:38;11.40;99.90
23540;DHT22;11947;50.810;4.394;2022-12-26T00:16:12;11.50;99.90
23540;DHT22;11947;50.810;4.394;2022-12-26T00:18:39;11.50;99.90
23540;DHT22;11947;50.810;4.394;2022-12-26T00:21:07;11.30;99.90
23540;DHT22;11947;50.810;4.394;2022-12-26T00:23:33;11.40;99.90
23540;DHT22;11947;50.810;4.394;2022-12-26T00:26:08;11.40;99.90
23540;DHT22;11947;50.810;4.394;2022-12-26T00:28:34;11.40;99.90
23540;DHT22;11947;50.810;4.394;2022-12-26T00:31:05;11.40;99.90
23540;DHT22;11947;50.810;4.394;2022-12-26T00:33:31;11.30;99.90
23540;DHT22;11947;50.810;4.394;2022-12-26T00:36:02;11.40;99.90
23540;DHT22;11947;50.810;4.394;2022-12-26T00:38:29;11.50;99.90
23540;DHT22;11947;50.810;4.394;2022-12-26T00:40:54;11.30;99.90
23540;DHT22;11947;50.810;4.394;2022-12-26T00:43:20;11.20;99.90
23540;DHT22;11947;50.810;4.394;2022-12-26T00:45:47;11.30;99.90
23540;DHT22;11947;50.810;4.394;2022-12-26T00:48:13;11.30;99.90
23540;DHT22;11947;50.810;4.394;2022-12-26T00:50:38;11.10;99.90
23540;DHT22;11947;50.810;4.394;2022-12-26T00:53:04;11.10;99.90
23540;DHT22;11947;50.810;4.394;2022-12-26T00:55:30;11.10;99.90
23540;DHT22;11947;50.810;4.394;2022-12-26T00:57:55;11.20;99.90
23540;DHT22;11947;50.810;4.394;2022-12-26T01:00:21;11.30;99.90
23540;DHT22;11947;50.810;4.394;2022-12-26T01:02:46;11.10;99.90
23540;DHT22;11947;50.810;4.394;2022-12-26T01:05:14;11.20;99.90
23540;DHT22;11947;50.810;4.394;2022-12-26T01:07:40;11.20;99.90
23540;DHT22;11947;50.810;4.394;2022-12-26T01:10:08;11.20;99.90
23540;DHT22;11947;50.810;4.394;2022-12-26T01:12:35;11.10;99.90
23540;DHT22;11947;50.810;4.394;2022-12-26T01:15:01;11.30;99.90
23540;DHT22;11947;50.810;4.394;2022-12-26T01:17:27;11.20;99.90
23540;DHT22;11947;50.810;4.394;2022-12-26T01:19:54;11.10;99.90
23540;DHT22;11947;50.810;4.394;2022-12-26T01:22:20;11.00;99.90
23540;DHT22;11947;50.810;4.394;2022-12-26T01:24:46;11.00;99.90
23540;DHT22;11947;50.810;4.394;2022-12-26T01:27:12;11.10;99.90
23540;DHT22;11947;50.810;4.394;2022-12-26T01:29:38;11.10;99.90
23540;DHT22;11947;50.810;4.394;2022-12-26T01:32:04;11.20;99.90
23540;DHT22;11947;50.810;4.394;2022-12-26T01:34:29;11.10;99.90
23540;DHT22;11947;50.810;4.394;2022-12-26T01:36:55;11.10;99.90
23540;DHT22;11947;50.810;4.394;2022-12-26T01:39:21;11.00;99.90
23540;DHT22;11947;50.810;4.394;2022-12-26T01:41:47;11.10;99.90
23540;DHT22;11947;50.810;4.394;2022-12-26T01:45:08;10.90;99.90
23540;DHT22;11947;50.810;4.394;2022-12-26T01:49:57;11.00;99.90
23540;DHT22;11947;50.810;4.394;2022-12-26T01:52:31;11.00;99.90
23540;DHT22;11947;50.810;4.394;2022-12-26T01:55:02;10.90;99.90
23540;DHT22;11947;50.810;4.394;2022-12-26T01:57:34;10.90;99.90
23540;DHT22;11947;50.810;4.394;2022-12-26T02:00:03;11.00;99.90
23540;DHT22;11947;50.810;4.394;2022-12-26T02:02:29;11.00;99.90
23540;DHT22;11947;50.810;4.394;2022-12-26T02:04:56;11.10;99.90
23540;DHT22;11947;50.810;4.394;2022-12-26T02:07:43;10.90;99.90
23540;DHT22;11947;50.810;4.394;2022-12-26T02:10:19;11.00;99.90
23540;DHT22;11947;50.810;4.394;2022-12-26T02:12:46;10.90;99.90
23540;DHT22;11947;50.810;4.394;2022-12-26T02:15:15;10.80;99.90
23540;DHT22;11947;50.810;4.394;2022-12-26T02:17:42;10.90;99.90
23540;DHT22;11947;50.810;4.394;2022-12-26T02:20:23;10.90;99.90
23540;DHT22;11947;50.810;4.394;2022-12-26T02:31:51;10.70;99.90
23540;DHT22;11947;50.810;4.394;2022-12-26T02:43:31;10.50;99.90
23540;DHT22;11947;50.810;4.394;2022-12-26T02:46:27;10.50;99.90
23540;DHT22;11947;50.810;4.394;2022-12-26T02:49:37;10.50;99.90
23540;DHT22;11947;50.810;4.394;2022-12-26T02:53:11;10.40;99.90
23540;DHT22;11947;50.810;4.394;2022-12-26T02:55:54;10.30;99.90
23540;DHT22;11947;50.810;4.394;2022-12-26T02:58:56;10.30;99.90
23540;DHT22;11947;50.810;4.394;2022-12-26T03:01:44;10.30;99.90
23540;DHT22;11947;50.810;4.394;2022-12-26T03:04:38;10.40;99.90
23540;DHT22;11947;50.810;4.394;2022-12-26T03:07:30;10.30;99.90
23540;DHT22;11947;50.810;4.394;2022-12-26T03:10:27;10.20;99.90
23540;DHT22;11947;50.810;4.394;2022-12-26T03:13:18;10.20;99.90
23540;DHT22;11947;50.810;4.394;2022-12-26T03:16:06;10.10;99.90
23540;DHT22;11947;50.810;4.394;2022-12-26T03:18:54;10.30;99.90
23540;DHT22;11947;50.810;4.394;2022-12-26T03:21:24;10.30;99.90
23540;DHT22;11947;50.810;4.394;2022-12-26T03:23:52;10.10;99.90
23540;DHT22;11947;50.810;4.394;2022-12-26T03:26:27;10.10;99.90
23540;DHT22;11947;50.810;4.394;2022-12-26T03:29:08;10.20;99.90
23540;DHT22;11947;50.810;4.394;2022-12-26T03:31:53;10.20;99.90
23540;DHT22;11947;50.810;4.394;2022-12-26T03:34:19;10.20;99.90
23540;DHT22;11947;50.810;4.394;2022-12-26T03:39:44;10.30;99.90
23540;DHT22;11947;50.810;4.394;2022-12-26T03:42:58;10.30;99.90
23540;DHT22;11947;50.810;4.394;2022-12-26T03:51:22;10.40;99.90
23540;DHT22;11947;50.810;4.394;2022-12-26T03:54:46;10.60;99.90
23540;DHT22;11947;50.810;4.394;2022-12-26T03:57:26;10.50;99.90
23540;DHT22;11947;50.810;4.394;2022-12-26T04:00:13;10.40;99.90
23540;DHT22;11947;50.810;4.394;2022-12-26T04:03:02;10.30;99.90
23540;DHT22;11947;50.810;4.394;2022-12-26T04:05:50;10.30;99.90
23540;DHT22;11947;50.810;4.394;2022-12-26T04:08:54;10.50;99.90
23540;DHT22;11947;50.810;4.394;2022-12-26T04:11:41;10.50;99.90
23540;DHT22;11947;50.810;4.394;2022-12-26T04:14:45;10.30;99.90
23540;DHT22;11947;50.810;4.394;2022-12-26T04:17:51;10.40;99.90
23540;DHT22;11947;50.810;4.394;2022-12-26T04:23:21;10.50;99.90
23540;DHT22;11947;50.810;4.394;2022-12-26T04:26:24;10.30;99.90
23540;DHT22;11947;50.810;4.394;2022-12-26T04:29:10;10.30;99.90
23540;DHT22;11947;50.810;4.394;2022-12-26T04:32:16;10.40;99.90
23540;DHT22;11947;50.810;4.394;2022-12-26T04:37:57;10.30;99.90
23540;DHT22;11947;50.810;4.394;2022-12-26T04:40:45;10.30;99.90
23540;DHT22;11947;50.810;4.394;2022-12-26T04:43:33;10.20;99.90
23540;DHT22;11947;50.810;4.394;2022-12-26T04:46:19;10.30;99.90
23540;DHT22;11947;50.810;4.394;2022-12-26T04:48:47;10.30;99.90
23540;DHT22;11947;50.810;4.394;2022-12-26T04:51:33;10.40;99.90
23540;DHT22;11947;50.810;4.394;2022-12-26T04:53:58;10.40;99.90
23540;DHT22;11947;50.810;4.394;2022-12-26T04:56:24;10.30;99.90
23540;DHT22;11947;50.810;4.394;2022-12-26T04:58:49;10.40;99.90
23540;DHT22;11947;50.810;4.394;2022-12-26T05:01:15;10.20;99.90
23540;DHT22;11947;50.810;4.394;2022-12-26T05:03:59;10.30;99.90
23540;DHT22;11947;50.810;4.394;2022-12-26T05:06:43;10.60;99.90
23540;DHT22;11947;50.810;4.394;2022-12-26T05:09:27;10.40;99.90
23540;DHT22;11947;50.810;4.394;2022-12-26T05:11:59;10.50;99.90
23540;DHT22;11947;50.810;4.394;2022-12-26T05:14:24;10.40;99.90
23540;DHT22;11947;50.810;4.394;2022-12-26T05:16:50;10.30;99.90
23540;DHT22;11947;50.810;4.394;2022-12-26T05:19:41;10.40;99.90
23540;DHT22;11947;50.810;4.394;2022-12-26T05:22:28;10.30;99.90
23540;DHT22;11947;50.810;4.394;2022-12-26T05:25:19;10.30;99.90
23540;DHT22;11947;50.810;4.394;2022-12-26T05:28:06;10.60;99.90
23540;DHT22;11947;50.810;4.394;2022-12-26T05:30:51;10.40;99.90
23540;DHT22;11947;50.810;4.394;2022-12-26T05:33:16;10.50;99.90
23540;DHT22;11947;50.810;4.394;2022-12-26T05:36:00;10.70;99.90
23540;DHT22;11947;50.810;4.394;2022-12-26T05:38:26;10.60;99.90
23540;DHT22;11947;50.810;4.394;2022-12-26T05:40:51;10.70;99.90
23540;DHT22;11947;50.810;4.394;2022-12-26T05:43:17;10.60;99.90
23540;DHT22;11947;50.810;4.394;2022-12-26T05:45:44;10.60;99.90
23540;DHT22;11947;50.810;4.394;2022-12-26T05:48:10;10.80;99.90
23540;DHT22;11947;50.810;4.394;2022-12-26T05:50:37;10.60;99.90
23540;DHT22;11947;50.810;4.394;2022-12-26T05:53:02;10.70;99.90
23540;DHT22;11947;50.810;4.394;2022-12-26T05:55:29;10.50;99.90
23540;DHT22;11947;50.810;4.394;2022-12-26T05:57:55;10.70;99.90
23540;DHT22;11947;50.810;4.394;2022-12-26T06:00:20;10.50;99.90
23540;DHT22;11947;50.810;4.394;2022-12-26T06:02:46;10.50;99.90
23540;DHT22;11947;50.810;4.394;2022-12-26T06:05:11;10.40;99.90
23540;DHT22;11947;50.810;4.394;2022-12-26T06:07:37;10.40;99.90
23540;DHT22;11947;50.810;4.394;2022-12-26T06:10:03;10.50;99.90
23540;DHT22;11947;50.810;4.394;2022-12-26T06:12:31;10.40;99.90
23540;DHT22;11947;50.810;4.394;2022-12-26T06:14:56;10.50;99.90
23540;DHT22;11947;50.810;4.394;2022-12-26T06:17:22;10.40;99.90
23540;DHT22;11947;50.810;4.394;2022-12-26T06:19:47;10.30;99.90
23540;DHT22;11947;50.810;4.394;2022-12-26T06:22:13;10.50;99.90
23540;DHT22;11947;50.810;4.394;2022-12-26T06:24:38;10.20;99.90
23540;DHT22;11947;50.810;4.394;2022-12-26T06:27:04;10.50;99.90
23540;DHT22;11947;50.810;4.394;2022-12-26T06:29:30;10.30;99.90
23540;DHT22;11947;50.810;4.394;2022-12-26T06:31:55;10.40;99.90
23540;DHT22;11947;50.810;4.394;2022-12-26T06:34:21;10.40;99.90
23540;DHT22;11947;50.810;4.394;2022-12-26T06:36:46;10.40;99.90
23540;DHT22;11947;50.810;4.394;2022-12-26T06:39:12;10.30;99.90
23540;DHT22;11947;50.810;4.394;2022-12-26T06:41:38;10.30;99.90
23540;DHT22;11947;50.810;4.394;2022-12-26T06:44:03;10.10;99.90
23540;DHT22;11947;50.810;4.394;2022-12-26T06:46:29;10.10;99.90
23540;DHT22;11947;50.810;4.394;2022-12-26T06:48:55;10.20;99.90
23540;DHT22;11947;50.810;4.394;2022-12-26T06:51:24;10.20;99.90
23540;DHT22;11947;50.810;4.394;2022-12-26T06:53:51;10.20;99.90
23540;DHT22;11947;50.810;4.394;2022-12-26T06:56:18;10.40;99.90
23540;DHT22;11947;50.810;4.394;2022-12-26T06:58:45;10.50;99.90
23540;DHT22;11947;50.810;4.394;2022-12-26T07:01:13;10.40;99.90
23540;DHT22;11947;50.810;4.394;2022-12-26T07:03:40;10.40;99.90
23540;DHT22;11947;50.810;4.394;2022-12-26T07:08:45;10.50;99.90
23540;DHT22;11947;50.810;4.394;2022-12-26T07:11:15;10.80;99.90
23540;DHT22;11947;50.810;4.394;2022-12-26T07:13:42;10.50;99.90
23540;DHT22;11947;50.810;4.394;2022-12-26T07:16:08;10.70;99.90
23540;DHT22;11947;50.810;4.394;2022-12-26T07:18:34;10.50;99.90
23540;DHT22;11947;50.810;4.394;2022-12-26T07:21:06;10.60;99.90
23540;DHT22;11947;50.810;4.394;2022-12-26T07:23:32;10.50;99.90
23540;DHT22;11947;50.810;4.394;2022-12-26T07:25:58;10.60;99.90
23540;DHT22;11947;50.810;4.394;2022-12-26T07:28:24;10.60;99.90
23540;DHT22;11947;50.810;4.394;2022-12-26T07:30:49;10.60;99.90
23540;DHT22;11947;50.810;4.394;2022-12-26T07:33:16;10.60;99.90
23540;DHT22;11947;50.810;4.394;2022-12-26T07:35:41;10.60;99.90
23540;DHT22;11947;50.810;4.394;2022-12-26T07:38:08;10.60;99.90
23540;DHT22;11947;50.810;4.394;2022-12-26T07:40:33;10.50;99.90
23540;DHT22;11947;50.810;4.394;2022-12-26T07:42:59;10.40;99.90
23540;DHT22;11947;50.810;4.394;2022-12-26T07:45:24;10.70;99.90
23540;DHT22;11947;50.810;4.394;2022-12-26T07:47:54;10.70;99.90
23540;DHT22;11947;50.810;4.394;2022-12-26T07:50:21;10.50;99.90
23540;DHT22;11947;50.810;4.394;2022-12-26T07:52:47;10.40;99.90
23540;DHT22;11947;50.810;4.394;2022-12-26T07:55:13;10.40;99.90
23540;DHT22;11947;50.810;4.394;2022-12-26T07:57:38;10.20;99.90
23540;DHT22;11947;50.810;4.394;2022-12-26T08:00:05;10.30;99.90
23540;DHT22;11947;50.810;4.394;2022-12-26T08:02:30;10.30;99.90
23540;DHT22;11947;50.810;4.394;2022-12-26T08:04:56;10.30;99.90
23540;DHT22;11947;50.810;4.394;2022-12-26T08:07:22;10.50;99.90
23540;DHT22;11947;50.810;4.394;2022-12-26T08:09:47;10.50;99.90
23540;DHT22;11947;50.810;4.394;2022-12-26T08:12:13;10.40;99.90
23540;DHT22;11947;50.810;4.394;2022-12-26T08:14:39;10.40;99.90
23540;DHT22;11947;50.810;4.394;2022-12-26T08:17:06;10.60;99.90
23540;DHT22;11947;50.810;4.394;2022-12-26T08:19:32;10.50;99.90
23540;DHT22;11947;50.810;4.394;2022-12-26T08:21:57;10.50;99.90
23540;DHT22;11947;50.810;4.394;2022-12-26T08:24:23;10.70;99.90
23540;DHT22;11947;50.810;4.394;2022-12-26T08:26:49;10.60;99.90
23540;DHT22;11947;50.810;4.394;2022-12-26T08:29:14;10.70;99.90
23540;DHT22;11947;50.810;4.394;2022-12-26T08:31:40;10.60;99.90
23540;DHT22;11947;50.810;4.394;2022-12-26T08:34:06;10.50;99.90
23540;DHT22;11947;50.810;4.394;2022-12-26T08:36:31;10.50;99.90
23540;DHT22;11947;50.810;4.394;2022-12-26T08:38:57;10.60;99.90
23540;DHT22;11947;50.810;4.394;2022-12-26T08:41:23;10.70;99.90
23540;DHT22;11947;50.810;4.394;2022-12-26T08:43:50;10.70;99.90
23540;DHT22;11947;50.810;4.394;2022-12-26T08:46:18;10.90;99.90
23540;DHT22;11947;50.810;4.394;2022-12-26T08:48:44;10.70;99.90
23540;DHT22;11947;50.810;4.394;2022-12-26T08:51:20;10.90;99.90
23540;DHT22;11947;50.810;4.394;2022-12-26T08:53:48;10.80;99.90
23540;DHT22;11947;50.810;4.394;2022-12-26T08:56:17;10.80;99.90
23540;DHT22;11947;50.810;4.394;2022-12-26T08:58:43;10.70;99.90
23540;DHT22;11947;50.810;4.394;2022-12-26T09:01:16;10.90;99.90
23540;DHT22;11947;50.810;4.394;2022-12-26T09:03:42;10.90;99.90
23540;DHT22;11947;50.810;4.394;2022-12-26T09:06:09;10.90;99.90
23540;DHT22;11947;50.810;4.394;2022-12-26T09:08:36;10.70;99.90
23540;DHT22;11947;50.810;4.394;2022-12-26T09:11:04;10.70;99.90
23540;DHT22;11947;50.810;4.394;2022-12-26T09:13:31;10.90;99.90
23540;DHT22;11947;50.810;4.394;2022-12-26T09:16:18;11.00;99.90
23540;DHT22;11947;50.810;4.394;2022-12-26T09:18:45;10.90;99.90
23540;DHT22;11947;50.810;4.394;2022-12-26T09:21:12;11.00;99.90
23540;DHT22;11947;50.810;4.394;2022-12-26T09:23:40;11.00;99.90
23540;DHT22;11947;50.810;4.394;2022-12-26T09:26:08;11.00;99.90
23540;DHT22;11947;50.810;4.394;2022-12-26T09:28:35;11.20;99.90
23540;DHT22;11947;50.810;4.394;2022-12-26T09:31:02;11.20;99.90
23540;DHT22;11947;50.810;4.394;2022-12-26T09:33:29;11.10;99.90
23540;DHT22;11947;50.810;4.394;2022-12-26T09:35:56;11.10;99.90
23540;DHT22;11947;50.810;4.394;2022-12-26T09:38:22;11.10;99.90
23540;DHT22;11947;50.810;4.394;2022-12-26T09:44:03;11.10;99.90
23540;DHT22;11947;50.810;4.394;2022-12-26T09:49:21;11.20;99.90
23540;DHT22;11947;50.810;4.394;2022-12-26T09:51:51;11.30;99.90
23540;DHT22;11947;50.810;4.394;2022-12-26T09:56:57;11.10;99.90
23540;DHT22;11947;50.810;4.394;2022-12-26T09:59:24;11.10;99.90
23540;DHT22;11947;50.810;4.394;2022-12-26T10:01:51;11.10;99.90
23540;DHT22;11947;50.810;4.394;2022-12-26T10:04:22;11.20;99.90
23540;DHT22;11947;50.810;4.394;2022-12-26T10:06:55;11.20;99.90
23540;DHT22;11947;50.810;4.394;2022-12-26T10:09:50;11.10;99.90
23540;DHT22;11947;50.810;4.394;2022-12-26T10:12:54;11.20;99.90
23540;DHT22;11947;50.810;4.394;2022-12-26T10:26:14;11.20;99.90
23540;DHT22;11947;50.810;4.394;2022-12-26T10:28:46;11.30;99.90
23540;DHT22;11947;50.810;4.394;2022-12-26T10:31:36;11.40;99.90
23540;DHT22;11947;50.810;4.394;2022-12-26T10:36:50;11.00;99.90
23540;DHT22;11947;50.810;4.394;2022-12-26T10:42:49;10.90;99.90
23540;DHT22;11947;50.810;4.394;2022-12-26T10:45:23;10.90;99.90
23540;DHT22;11947;50.810;4.394;2022-12-26T10:47:52;11.00;99.90
23540;DHT22;11947;50.810;4.394;2022-12-26T10:50:25;11.10;99.90
23540;DHT22;11947;50.810;4.394;2022-12-26T10:52:51;10.90;99.90
23540;DHT22;11947;50.810;4.394;2022-12-26T10:55:19;10.80;99.90
23540;DHT22;11947;50.810;4.394;2022-12-26T10:57:47;10.90;99.90
23540;DHT22;11947;50.810;4.394;2022-12-26T11:00:20;11.00;99.90
23540;DHT22;11947;50.810;4.394;2022-12-26T11:03:02;10.80;99.90
23540;DHT22;11947;50.810;4.394;2022-12-26T11:05:28;10.90;99.90
23540;DHT22;11947;50.810;4.394;2022-12-26T11:08:04;11.00;99.90
23540;DHT22;11947;50.810;4.394;2022-12-26T11:10:30;11.10;99.90
23540;DHT22;11947;50.810;4.394;2022-12-26T11:13:03;11.00;99.90
23540;DHT22;11947;50.810;4.394;2022-12-26T11:15:37;11.00;99.90
23540;DHT22;11947;50.810;4.394;2022-12-26T11:18:18;11.00;99.90
23540;DHT22;11947;50.810;4.394;2022-12-26T11:20:45;10.90;99.90
23540;DHT22;11947;50.810;4.394;2022-12-26T11:23:20;10.80;99.90
23540;DHT22;11947;50.810;4.394;2022-12-26T11:25:54;10.80;99.90
23540;DHT22;11947;50.810;4.394;2022-12-26T11:28:31;10.60;99.90
23540;DHT22;11947;50.810;4.394;2022-12-26T11:30:59;10.50;99.90
23540;DHT22;11947;50.810;4.394;2022-12-26T11:33:27;10.40;99.90
23540;DHT22;11947;50.810;4.394;2022-12-26T11:38:26;10.30;99.90
23540;DHT22;11947;50.810;4.394;2022-12-26T11:41:03;10.20;99.90
23540;DHT22;11947;50.810;4.394;2022-12-26T11:43:51;10.10;99.90
23540;DHT22;11947;50.810;4.394;2022-12-26T11:46:17;10.00;99.90
23540;DHT22;11947;50.810;4.394;2022-12-26T11:48:48;10.20;99.90
23540;DHT22;11947;50.810;4.394;2022-12-26T11:51:14;10.00;99.90
23540;DHT22;11947;50.810;4.394;2022-12-26T11:53:40;10.20;99.90
23540;DHT22;11947;50.810;4.394;2022-12-26T11:56:06;10.10;99.90
23540;DHT22;11947;50.810;4.394;2022-12-26T11:58:34;10.10;99.90
23540;DHT22;11947;50.810;4.394;2022-12-26T12:03:34;9.90;99.90
23540;DHT22;11947;50.810;4.394;2022-12-26T12:06:26;9.90;99.90
23540;DHT22;11947;50.810;4.394;2022-12-26T12:14:38;10.00;99.90
23540;DHT22;11947;50.810;4.394;2022-12-26T12:17:26;10.00;99.90
23540;DHT22;11947;50.810;4.394;2022-12-26T12:22:39;9.90;99.90
23540;DHT22;11947;50.810;4.394;2022-12-26T12:25:46;10.10;99.90
23540;DHT22;11947;50.810;4.394;2022-12-26T12:33:43;10.10;99.90
23540;DHT22;11947;50.810;4.394;2022-12-26T12:36:37;10.00;99.90
23540;DHT22;11947;50.810;4.394;2022-12-26T12:56:04;10.00;99.90
23540;DHT22;11947;50.810;4.394;2022-12-26T13:01:53;10.20;99.90
23540;DHT22;11947;50.810;4.394;2022-12-26T13:04:22;10.30;99.90
23540;DHT22;11947;50.810;4.394;2022-12-26T13:06:52;10.60;99.90
23540;DHT22;11947;50.810;4.394;2022-12-26T13:09:19;10.50;99.90
23540;DHT22;11947;50.810;4.394;2022-12-26T13:17:29;10.50;99.90
23540;DHT22;11947;50.810;4.394;2022-12-26T13:22:38;10.50;99.90
23540;DHT22;11947;50.810;4.394;2022-12-26T13:25:25;10.60;99.90
23540;DHT22;11947;50.810;4.394;2022-12-26T13:27:54;10.50;99.90
23540;DHT22;11947;50.810;4.394;2022-12-26T13:30:34;10.50;99.90
23540;DHT22;11947;50.810;4.394;2022-12-26T13:32:59;10.30;99.90
23540;DHT22;11947;50.810;4.394;2022-12-26T13:38:17;10.00;99.90
23540;DHT22;11947;50.810;4.394;2022-12-26T13:41:02;9.90;99.90
23540;DHT22;11947;50.810;4.394;2022-12-26T13:44:04;9.80;99.90
23540;DHT22;11947;50.810;4.394;2022-12-26T13:51:52;9.60;99.90
23540;DHT22;11947;50.810;4.394;2022-12-26T13:54:18;9.30;99.90
23540;DHT22;11947;50.810;4.394;2022-12-26T13:57:11;9.20;99.90
23540;DHT22;11947;50.810;4.394;2022-12-26T13:59:55;9.20;99.90
23540;DHT22;11947;50.810;4.394;2022-12-26T14:13:59;9.00;99.90
23540;DHT22;11947;50.810;4.394;2022-12-26T14:19:31;8.90;99.90
23540;DHT22;11947;50.810;4.394;2022-12-26T14:22:17;8.80;99.90
23540;DHT22;11947;50.810;4.394;2022-12-26T14:25:11;8.80;99.90
23540;DHT22;11947;50.810;4.394;2022-12-26T14:30:29;8.70;99.90
23540;DHT22;11947;50.810;4.394;2022-12-26T14:33:17;8.60;99.90
23540;DHT22;11947;50.810;4.394;2022-12-26T14:41:15;8.60;99.90
23540;DHT22;11947;50.810;4.394;2022-12-26T14:49:23;8.40;99.90
23540;DHT22;11947;50.810;4.394;2022-12-26T14:51:50;8.30;99.90
23540;DHT22;11947;50.810;4.394;2022-12-26T14:56:41;8.10;99.90
23540;DHT22;11947;50.810;4.394;2022-12-26T14:59:27;8.20;99.90
23540;DHT22;11947;50.810;4.394;2022-12-26T15:02:29;8.10;99.90
23540;DHT22;11947;50.810;4.394;2022-12-26T15:05:13;7.80;99.90
23540;DHT22;11947;50.810;4.394;2022-12-26T15:16:10;7.40;99.90
23540;DHT22;11947;50.810;4.394;2022-12-26T15:22:00;7.30;99.90
23540;DHT22;11947;50.810;4.394;2022-12-26T15:33:05;6.70;99.90
23540;DHT22;11947;50.810;4.394;2022-12-26T15:38:20;6.50;99.90
23540;DHT22;11947;50.810;4.394;2022-12-26T15:46:29;6.30;99.90
23540;DHT22;11947;50.810;4.394;2022-12-26T15:49:12;6.20;99.90
23540;DHT22;11947;50.810;4.394;2022-12-26T15:51:54;6.20;99.90
23540;DHT22;11947;50.810;4.394;2022-12-26T15:57:30;6.10;99.90
23540;DHT22;11947;50.810;4.394;2022-12-26T16:00:08;6.10;99.90
23540;DHT22;11947;50.810;4.394;2022-12-26T16:02:48;6.00;99.90
23540;DHT22;11947;50.810;4.394;2022-12-26T16:08:23;5.80;99.90
23540;DHT22;11947;50.810;4.394;2022-12-26T16:11:18;5.80;99.90
23540;DHT22;11947;50.810;4.394;2022-12-26T16:16:32;5.60;99.90
23540;DHT22;11947;50.810;4.394;2022-12-26T16:19:21;5.60;99.90
23540;DHT22;11947;50.810;4.394;2022-12-26T16:21:55;5.70;99.90
23540;DHT22;11947;50.810;4.394;2022-12-26T16:24:43;5.60;99.90
23540;DHT22;11947;50.810;4.394;2022-12-26T16:27:15;5.60;99.90
23540;DHT22;11947;50.810;4.394;2022-12-26T16:29:56;5.70;99.90
23540;DHT22;11947;50.810;4.394;2022-12-26T16:32:29;5.60;99.90
23540;DHT22;11947;50.810;4.394;2022-12-26T16:34:57;5.40;99.90
23540;DHT22;11947;50.810;4.394;2022-12-26T16:37:24;5.40;99.90
23540;DHT22;11947;50.810;4.394;2022-12-26T16:40:18;5.50;99.90
23540;DHT22;11947;50.810;4.394;2022-12-26T16:42:58;5.40;99.90
23540;DHT22;11947;50.810;4.394;2022-12-26T16:45:25;5.40;99.90
23540;DHT22;11947;50.810;4.394;2022-12-26T16:47:53;5.20;99.90
23540;DHT22;11947;50.810;4.394;2022-12-26T16:50:21;5.30;99.90
23540;DHT22;11947;50.810;4.394;2022-12-26T16:52:48;5.20;99.90
23540;DHT22;11947;50.810;4.394;2022-12-26T16:57:57;5.30;99.90
23540;DHT22;11947;50.810;4.394;2022-12-26T17:00:24;5.20;99.90
23540;DHT22;11947;50.810;4.394;2022-12-26T17:02:53;5.10;99.90
23540;DHT22;11947;50.810;4.394;2022-12-26T17:05:31;5.20;99.90
23540;DHT22;11947;50.810;4.394;2022-12-26T17:08:00;5.10;99.90
23540;DHT22;11947;50.810;4.394;2022-12-26T17:10:32;5.00;99.90
23540;DHT22;11947;50.810;4.394;2022-12-26T17:13:02;5.10;99.90
23540;DHT22;11947;50.810;4.394;2022-12-26T17:15:34;5.00;99.90
23540;DHT22;11947;50.810;4.394;2022-12-26T17:20:55;4.90;99.90
23540;DHT22;11947;50.810;4.394;2022-12-26T17:23:37;5.10;99.90
23540;DHT22;11947;50.810;4.394;2022-12-26T17:26:30;5.10;99.90
23540;DHT22;11947;50.810;4.394;2022-12-26T17:28:59;4.90;99.90
23540;DHT22;11947;50.810;4.394;2022-12-26T17:31:39;5.10;99.90
23540;DHT22;11947;50.810;4.394;2022-12-26T17:34:32;5.00;99.90
23540;DHT22;11947;50.810;4.394;2022-12-26T17:37:03;5.00;99.90
23540;DHT22;11947;50.810;4.394;2022-12-26T17:39:29;4.90;99.90
23540;DHT22;11947;50.810;4.394;2022-12-26T17:41:58;4.80;99.90
23540;DHT22;11947;50.810;4.394;2022-12-26T17:44:41;4.80;99.90
23540;DHT22;11947;50.810;4.394;2022-12-26T17:47:27;4.80;99.90
23540;DHT22;11947;50.810;4.394;2022-12-26T17:49:56;4.80;99.90
23540;DHT22;11947;50.810;4.394;2022-12-26T17:52:25;4.80;99.90
23540;DHT22;11947;50.810;4.394;2022-12-26T17:54:53;4.90;99.90
23540;DHT22;11947;50.810;4.394;2022-12-26T17:57:23;4.80;99.90
23540;DHT22;11947;50.810;4.394;2022-12-26T17:59:51;4.80;99.90
23540;DHT22;11947;50.810;4.394;2022-12-26T18:02:20;4.60;99.90
23540;DHT22;11947;50.810;4.394;2022-12-26T18:04:51;4.60;99.90
23540;DHT22;11947;50.810;4.394;2022-12-26T18:07:23;4.60;99.90
23540;DHT22;11947;50.810;4.394;2022-12-26T18:09:51;4.50;99.90
23540;DHT22;11947;50.810;4.394;2022-12-26T18:12:18;4.60;99.90
23540;DHT22;11947;50.810;4.394;2022-12-26T18:14:45;4.60;99.90
23540;DHT22;11947;50.810;4.394;2022-12-26T18:17:14;4.80;99.90
23540;DHT22;11947;50.810;4.394;2022-12-26T18:19:42;4.90;99.90
23540;DHT22;11947;50.810;4.394;2022-12-26T18:22:12;4.80;99.90
23540;DHT22;11947;50.810;4.394;2022-12-26T18:24:40;4.70;99.90
23540;DHT22;11947;50.810;4.394;2022-12-26T18:27:17;4.70;99.90
23540;DHT22;11947;50.810;4.394;2022-12-26T18:29:44;4.70;99.90
23540;DHT22;11947;50.810;4.394;2022-12-26T18:32:31;4.70;99.90
23540;DHT22;11947;50.810;4.394;2022-12-26T18:34:57;4.80;99.90
23540;DHT22;11947;50.810;4.394;2022-12-26T18:37:27;4.90;99.90
23540;DHT22;11947;50.810;4.394;2022-12-26T18:39:55;4.80;99.90
23540;DHT22;11947;50.810;4.394;2022-12-26T18:42:21;4.80;99.90
23540;DHT22;11947;50.810;4.394;2022-12-26T18:44:46;4.80;99.90
23540;DHT22;11947;50.810;4.394;2022-12-26T18:47:14;4.90;99.90
23540;DHT22;11947;50.810;4.394;2022-12-26T18:49:41;4.80;99.90
23540;DHT22;11947;50.810;4.394;2022-12-26T18:52:07;4.80;99.90
23540;DHT22;11947;50.810;4.394;2022-12-26T18:54:32;4.80;99.90
23540;DHT22;11947;50.810;4.394;2022-12-26T18:57:05;4.80;99.90
23540;DHT22;11947;50.810;4.394;2022-12-26T18:59:31;4.70;99.90
23540;DHT22;11947;50.810;4.394;2022-12-26T19:01:58;4.70;99.90
23540;DHT22;11947;50.810;4.394;2022-12-26T19:04:25;4.80;99.90
23540;DHT22;11947;50.810;4.394;2022-12-26T19:06:51;4.80;99.90
23540;DHT22;11947;50.810;4.394;2022-12-26T19:09:18;4.90;99.90
23540;DHT22;11947;50.810;4.394;2022-12-26T19:11:45;5.00;99.90
23540;DHT22;11947;50.810;4.394;2022-12-26T19:14:21;4.90;99.90
23540;DHT22;11947;50.810;4.394;2022-12-26T19:16:48;4.90;99.90
23540;DHT22;11947;50.810;4.394;2022-12-26T19:19:14;4.90;99.90
23540;DHT22;11947;50.810;4.394;2022-12-26T19:21:41;5.00;99.90
23540;DHT22;11947;50.810;4.394;2022-12-26T19:24:07;5.10;99.90